createdAt,value
2023-07-18T00:00:39.745Z,53.98
2023-07-18T00:01:39.760Z,53.82
2023-07-18T00:02:39.715Z,56.07
2023-07-18T00:03:39.712Z,51.56
2023-07-18T00:04:39.693Z,48.02
2023-07-18T00:05:39.653Z,53.33
2023-07-18T00:06:39.627Z,53.01
2023-07-18T00:07:39.636Z,52.53
2023-07-18T00:08:39.599Z,53.66
2023-07-18T00:09:39.614Z,52.53
2023-07-18T00:10:39.607Z,53.17
2023-07-18T00:11:39.594Z,53.66
2023-07-18T00:12:39.566Z,53.66
2023-07-18T00:13:39.595Z,51.88
2023-07-18T00:14:39.557Z,51.56
2023-07-18T00:15:39.577Z,51.40
2023-07-18T00:16:39.599Z,54.46
2023-07-18T00:17:39.549Z,51.08
2023-07-18T00:18:39.527Z,50.27
2023-07-18T00:19:39.517Z,50.27
2023-07-18T00:20:39.530Z,51.24
2023-07-18T00:21:39.505Z,51.56
2023-07-18T00:22:39.535Z,48.34
2023-07-18T00:23:39.487Z,49.47
2023-07-18T00:24:39.462Z,50.92
2023-07-18T00:25:39.492Z,52.69
2023-07-18T00:26:39.505Z,51.40
2023-07-18T00:27:39.453Z,50.11
2023-07-18T00:28:39.442Z,52.85
2023-07-18T00:29:39.471Z,49.79
2023-07-18T00:30:39.411Z,51.40
2023-07-18T00:31:39.532Z,50.27
2023-07-18T00:32:39.439Z,49.31
2023-07-18T00:33:39.422Z,52.85
2023-07-18T00:34:39.387Z,53.01
2023-07-18T00:35:39.425Z,52.05
2023-07-18T00:36:39.372Z,55.43
2023-07-18T00:37:39.396Z,52.85
2023-07-18T00:38:39.350Z,52.53
2023-07-18T00:39:39.369Z,52.85
2023-07-18T00:40:39.352Z,52.21
2023-07-18T00:41:39.342Z,54.30
2023-07-18T00:42:39.360Z,52.85
2023-07-18T00:43:39.339Z,54.95
2023-07-18T00:44:39.317Z,54.30
2023-07-18T00:45:39.348Z,55.59
2023-07-18T00:46:39.381Z,54.79
2023-07-18T00:47:39.322Z,55.11
2023-07-18T00:48:39.325Z,51.56
2023-07-18T00:49:39.293Z,52.37
2023-07-18T00:50:39.266Z,53.50
2023-07-18T00:51:39.269Z,53.98
2023-07-18T00:52:39.284Z,53.50
2023-07-18T00:53:39.277Z,52.21
2023-07-18T00:54:39.222Z,54.14
2023-07-18T00:55:39.242Z,55.91
2023-07-18T00:56:39.200Z,51.56
2023-07-18T00:57:39.218Z,53.33
2023-07-18T00:58:39.194Z,53.98
2023-07-18T00:59:39.191Z,52.05
2023-07-18T01:00:39.175Z,55.59
2023-07-18T01:01:39.197Z,52.69
2023-07-18T01:02:39.295Z,51.24
2023-07-18T01:03:39.196Z,53.82
2023-07-18T01:04:39.174Z,52.05
2023-07-18T01:05:39.169Z,52.21
2023-07-18T01:06:39.157Z,51.24
2023-07-18T01:07:39.139Z,51.24
2023-07-18T01:08:39.167Z,52.37
2023-07-18T01:09:39.138Z,50.60
2023-07-18T01:10:39.118Z,52.37
2023-07-18T01:11:39.097Z,48.98
2023-07-18T01:12:39.073Z,48.66
2023-07-18T01:13:39.099Z,48.82
2023-07-18T01:14:39.072Z,51.88
2023-07-18T01:15:39.169Z,50.43
2023-07-18T01:16:39.053Z,49.47
2023-07-18T01:17:39.116Z,52.21
2023-07-18T01:18:39.025Z,53.66
2023-07-18T01:19:39.051Z,50.92
2023-07-18T01:20:39.061Z,48.18
2023-07-18T01:21:39.071Z,54.95
2023-07-18T01:22:39.046Z,54.14
2023-07-18T01:23:39.020Z,55.91
2023-07-18T01:24:38.984Z,52.85
2023-07-18T01:25:39.000Z,52.05
2023-07-18T01:26:38.968Z,53.33
2023-07-18T01:27:38.991Z,50.76
2023-07-18T01:28:38.969Z,51.88
2023-07-18T01:29:38.964Z,52.21
2023-07-18T01:30:38.961Z,52.37
2023-07-18T01:31:38.994Z,51.24
2023-07-18T01:32:38.977Z,51.40
2023-07-18T01:33:38.977Z,56.56
2023-07-18T01:34:38.905Z,54.95
2023-07-18T01:35:38.922Z,52.05
2023-07-18T01:36:38.928Z,50.27
2023-07-18T01:37:38.904Z,51.40
2023-07-18T01:38:38.881Z,53.82
2023-07-18T01:39:38.875Z,54.30
2023-07-18T01:40:38.867Z,53.50
2023-07-18T01:41:38.889Z,54.95
2023-07-18T01:42:38.904Z,51.56
2023-07-18T01:43:38.876Z,55.91
2023-07-18T01:44:38.862Z,53.33
2023-07-18T01:45:38.852Z,50.60
2023-07-18T01:46:38.821Z,53.98
2023-07-18T01:47:38.929Z,54.46
2023-07-18T01:48:38.815Z,53.33
2023-07-18T01:49:38.795Z,53.01
2023-07-18T01:50:38.782Z,52.85
2023-07-18T01:51:38.807Z,52.85
2023-07-18T01:52:38.780Z,53.66
2023-07-18T01:53:38.792Z,56.24
2023-07-18T01:54:38.752Z,57.52
2023-07-18T01:55:38.756Z,56.40
2023-07-18T01:56:38.728Z,55.43
2023-07-18T01:57:38.738Z,52.53
2023-07-18T01:58:38.723Z,52.69
2023-07-18T01:59:38.737Z,54.46
2023-07-18T02:00:38.754Z,55.59
2023-07-18T02:01:38.715Z,52.53
2023-07-18T02:02:38.815Z,54.30
2023-07-18T02:03:38.734Z,54.46
2023-07-18T02:04:38.676Z,53.82
2023-07-18T02:05:38.677Z,53.82
2023-07-18T02:06:38.683Z,54.30
2023-07-18T02:07:38.666Z,53.17
2023-07-18T02:08:38.650Z,55.59
2023-07-18T02:09:38.647Z,54.79
2023-07-18T02:10:38.647Z,55.75
2023-07-18T02:11:38.664Z,54.62
2023-07-18T02:12:38.611Z,54.14
2023-07-18T02:13:38.626Z,55.43
2023-07-18T02:14:38.599Z,55.11
2023-07-18T02:15:38.600Z,53.50
2023-07-18T02:16:38.613Z,52.05
2023-07-18T02:17:38.601Z,53.98
2023-07-18T02:18:38.570Z,52.05
2023-07-18T02:19:38.567Z,56.88
2023-07-18T02:20:38.596Z,54.79
2023-07-18T02:21:38.572Z,54.95
2023-07-18T02:22:38.577Z,54.62
2023-07-18T02:23:38.577Z,55.27
2023-07-18T02:24:38.556Z,57.52
2023-07-18T02:25:38.531Z,56.40
2023-07-18T02:26:38.513Z,57.04
2023-07-18T02:27:38.520Z,54.14
2023-07-18T02:28:38.524Z,53.50
2023-07-18T02:29:38.548Z,52.69
2023-07-18T02:30:38.544Z,55.27
2023-07-18T02:31:38.523Z,54.46
2023-07-18T02:32:38.480Z,53.66
2023-07-18T02:33:38.490Z,54.14
2023-07-18T02:34:38.508Z,56.24
2023-07-18T02:35:38.475Z,55.59
2023-07-18T02:36:38.460Z,59.14
2023-07-18T02:37:38.463Z,55.75
2023-07-18T02:38:38.431Z,55.43
2023-07-18T02:39:38.463Z,57.52
2023-07-18T02:40:38.459Z,56.24
2023-07-18T02:41:38.449Z,58.01
2023-07-18T02:42:38.440Z,54.79
2023-07-18T02:43:38.415Z,54.30
2023-07-18T02:44:38.389Z,55.11
2023-07-18T02:45:38.417Z,56.24
2023-07-18T02:46:38.419Z,56.88
2023-07-18T02:47:38.467Z,57.36
2023-07-18T02:48:38.361Z,58.01
2023-07-18T02:49:38.362Z,55.59
2023-07-18T02:50:38.373Z,55.75
2023-07-18T02:51:38.350Z,56.56
2023-07-18T02:52:38.330Z,57.36
2023-07-18T02:53:38.343Z,55.75
2023-07-18T02:54:38.322Z,56.07
2023-07-18T02:55:38.327Z,58.17
2023-07-18T02:56:38.311Z,56.88
2023-07-18T02:57:38.397Z,58.17
2023-07-18T02:58:38.299Z,58.01
2023-07-18T02:59:38.310Z,53.98
2023-07-18T03:00:38.312Z,57.85
2023-07-18T03:01:38.300Z,55.91
2023-07-18T03:02:38.334Z,56.40
2023-07-18T03:03:38.374Z,58.01
2023-07-18T03:04:38.231Z,52.05
2023-07-18T03:05:38.238Z,54.62
2023-07-18T03:06:38.227Z,58.17
2023-07-18T03:07:38.217Z,58.97
2023-07-18T03:08:38.239Z,57.04
2023-07-18T03:09:38.214Z,57.04
2023-07-18T03:10:38.213Z,57.52
2023-07-18T03:11:38.205Z,54.95
2023-07-18T03:12:38.178Z,57.04
2023-07-18T03:13:38.189Z,56.56
2023-07-18T03:14:38.183Z,58.33
2023-07-18T03:15:38.178Z,54.95
2023-07-18T03:16:38.199Z,57.52
2023-07-18T03:17:38.203Z,57.20
2023-07-18T03:18:38.128Z,55.59
2023-07-18T03:19:38.171Z,57.04
2023-07-18T03:20:38.132Z,58.01
2023-07-18T03:21:38.142Z,58.65
2023-07-18T03:22:38.192Z,56.56
2023-07-18T03:23:38.125Z,56.56
2023-07-18T03:24:38.114Z,59.14
2023-07-18T03:25:38.103Z,58.65
2023-07-18T03:26:38.082Z,57.20
2023-07-18T03:27:38.081Z,59.46
2023-07-18T03:28:38.094Z,58.65
2023-07-18T03:29:38.095Z,58.65
2023-07-18T03:30:38.056Z,59.30
2023-07-18T03:31:38.080Z,58.81
2023-07-18T03:32:38.034Z,56.07
2023-07-18T03:33:38.036Z,55.75
2023-07-18T03:34:38.020Z,57.85
2023-07-18T03:35:38.078Z,57.69
2023-07-18T03:36:38.502Z,57.52
2023-07-18T03:37:38.009Z,58.33
2023-07-18T03:38:37.995Z,57.69
2023-07-18T03:39:37.997Z,58.01
2023-07-18T03:40:37.966Z,58.17
2023-07-18T03:41:38.016Z,58.65
2023-07-18T03:42:37.948Z,59.14
2023-07-18T03:43:37.973Z,57.20
2023-07-18T03:44:37.932Z,58.01
2023-07-18T03:45:37.955Z,58.33
2023-07-18T03:46:38.043Z,58.97
2023-07-18T03:47:37.995Z,59.78
2023-07-18T03:48:37.968Z,57.69
2023-07-18T03:49:37.914Z,58.01
2023-07-18T03:50:37.908Z,58.49
2023-07-18T03:51:38.149Z,58.49
2023-07-18T03:52:37.892Z,59.94
2023-07-18T03:53:37.929Z,58.97
2023-07-18T03:54:37.893Z,60.26
2023-07-18T03:55:37.887Z,58.01
2023-07-18T03:56:37.874Z,57.36
2023-07-18T03:57:37.866Z,60.26
2023-07-18T03:58:37.848Z,57.52
2023-07-18T03:59:37.859Z,57.85
2023-07-18T04:00:37.843Z,56.88
2023-07-18T04:01:37.890Z,58.81
2023-07-18T04:02:37.855Z,58.97
2023-07-18T04:03:37.827Z,60.75
2023-07-18T04:04:37.812Z,59.78
2023-07-18T04:05:37.801Z,59.14
2023-07-18T04:06:37.796Z,60.42
2023-07-18T04:07:37.812Z,60.75
2023-07-18T04:08:39.244Z,60.10
2023-07-18T04:09:37.791Z,61.07
2023-07-18T04:10:37.749Z,59.94
2023-07-18T04:11:37.761Z,58.17
2023-07-18T04:12:37.754Z,56.24
2023-07-18T04:13:37.751Z,55.43
2023-07-18T04:14:37.727Z,56.56
2023-07-18T04:15:37.742Z,58.17
2023-07-18T04:16:37.747Z,55.43
2023-07-18T04:17:37.994Z,58.49
2023-07-18T04:18:37.733Z,58.33
2023-07-18T04:19:37.733Z,55.91
2023-07-18T04:20:37.671Z,56.56
2023-07-18T04:21:37.676Z,56.07
2023-07-18T04:22:37.672Z,54.46
2023-07-18T04:23:37.676Z,55.75
2023-07-18T04:24:37.680Z,56.56
2023-07-18T04:25:37.651Z,58.81
2023-07-18T04:26:37.646Z,57.69
2023-07-18T04:27:37.670Z,58.17
2023-07-18T04:28:37.654Z,58.17
2023-07-18T04:29:37.644Z,56.72
2023-07-18T04:30:37.611Z,57.52
2023-07-18T04:31:37.614Z,56.88
2023-07-18T04:32:37.630Z,56.07
2023-07-18T04:33:37.685Z,56.72
2023-07-18T04:34:37.625Z,56.40
2023-07-18T04:35:37.578Z,55.27
2023-07-18T04:36:37.573Z,55.43
2023-07-18T04:37:37.566Z,57.52
2023-07-18T04:38:37.536Z,56.07
2023-07-18T04:39:37.564Z,59.14
2023-07-18T04:40:37.532Z,56.88
2023-07-18T04:41:49.398Z,56.56
2023-07-18T04:42:38.555Z,58.01
2023-07-18T04:43:37.510Z,58.33
2023-07-18T04:44:37.479Z,56.07
2023-07-18T04:45:37.499Z,57.04
2023-07-18T04:46:37.767Z,57.20
2023-07-18T04:47:37.617Z,56.40
2023-07-18T04:48:37.450Z,54.79
2023-07-18T04:49:37.475Z,55.11
2023-07-18T04:50:37.462Z,57.69
2023-07-18T04:51:37.466Z,58.65
2023-07-18T04:52:37.432Z,57.85
2023-07-18T04:53:37.436Z,56.72
2023-07-18T04:54:37.393Z,57.36
2023-07-18T04:55:37.396Z,56.07
2023-07-18T04:56:37.372Z,57.85
2023-07-18T04:57:37.406Z,56.40
2023-07-18T04:58:37.392Z,55.91
2023-07-18T04:59:37.365Z,57.20
2023-07-18T05:00:37.368Z,53.82
2023-07-18T05:01:37.365Z,56.07
2023-07-18T05:02:37.365Z,56.40
2023-07-18T05:03:48.230Z,53.33
2023-07-18T05:04:38.457Z,56.07
2023-07-18T05:05:37.315Z,55.91
2023-07-18T05:06:37.295Z,56.56
2023-07-18T05:07:37.317Z,55.91
2023-07-18T05:08:37.270Z,55.91
2023-07-18T05:09:37.303Z,54.14
2023-07-18T05:10:37.256Z,56.07
2023-07-18T05:11:37.277Z,55.59
2023-07-18T05:12:37.235Z,56.56
2023-07-18T05:13:37.272Z,56.24
2023-07-18T05:14:37.223Z,54.14
2023-07-18T05:15:37.284Z,57.20
2023-07-18T05:16:37.205Z,57.52
2023-07-18T05:17:37.263Z,56.40
2023-07-18T05:18:37.254Z,56.40
2023-07-18T05:19:37.201Z,55.75
2023-07-18T05:20:37.172Z,53.98
2023-07-18T05:21:37.173Z,56.72
2023-07-18T05:22:37.169Z,55.27
2023-07-18T05:23:37.162Z,55.59
2023-07-18T05:24:37.170Z,57.69
2023-07-18T05:25:40.435Z,56.24
2023-07-18T05:26:37.118Z,56.56
2023-07-18T05:27:37.148Z,58.01
2023-07-18T05:28:37.108Z,56.56
2023-07-18T05:29:37.141Z,56.07
2023-07-18T05:30:37.109Z,54.62
2023-07-18T05:31:37.207Z,54.30
2023-07-18T05:32:37.090Z,56.07
2023-07-18T05:33:37.103Z,56.72
2023-07-18T05:34:37.080Z,56.07
2023-07-18T05:35:37.056Z,56.88
2023-07-18T05:36:37.062Z,57.36
2023-07-18T05:37:37.069Z,54.62
2023-07-18T05:38:37.028Z,55.59
2023-07-18T05:39:37.033Z,56.40
2023-07-18T05:40:37.055Z,54.79
2023-07-18T05:41:37.017Z,53.50
2023-07-18T05:42:36.986Z,55.43
2023-07-18T05:43:37.001Z,56.40
2023-07-18T05:44:37.050Z,56.24
2023-07-18T05:45:37.007Z,56.72
2023-07-18T05:46:39.783Z,56.72
2023-07-18T05:47:38.240Z,56.24
2023-07-18T05:48:36.960Z,55.91
2023-07-18T05:49:36.967Z,55.91
2023-07-18T05:50:36.967Z,55.91
2023-07-18T05:51:36.939Z,53.98
2023-07-18T05:52:36.922Z,53.98
2023-07-18T05:53:36.915Z,55.91
2023-07-18T05:54:39.499Z,54.62
2023-07-18T05:55:36.920Z,54.30
2023-07-18T05:56:36.896Z,54.46
2023-07-18T05:57:36.907Z,54.95
2023-07-18T05:58:36.878Z,55.59
2023-07-18T05:59:36.916Z,53.98
2023-07-18T06:00:36.881Z,55.59
2023-07-18T06:01:36.923Z,52.53
2023-07-18T06:02:36.878Z,54.79
2023-07-18T06:03:36.964Z,55.27
2023-07-18T06:04:36.847Z,53.33
2023-07-18T06:05:36.857Z,53.66
2023-07-18T06:06:36.827Z,54.14
2023-07-18T06:07:36.846Z,54.46
2023-07-18T06:08:36.802Z,52.69
2023-07-18T06:09:36.805Z,54.30
2023-07-18T06:10:36.790Z,53.17
2023-07-18T06:11:36.806Z,55.11
2023-07-18T06:12:36.777Z,53.17
2023-07-18T06:13:36.826Z,51.88
2023-07-18T06:14:36.815Z,56.24
2023-07-18T06:15:36.773Z,55.43
2023-07-18T06:16:36.792Z,54.95
2023-07-18T06:17:36.813Z,53.98
2023-07-18T06:18:36.726Z,53.98
2023-07-18T06:19:36.765Z,52.53
2023-07-18T06:20:36.717Z,53.01
2023-07-18T06:21:36.750Z,55.43
2023-07-18T06:22:36.758Z,54.79
2023-07-18T06:23:36.720Z,54.46
2023-07-18T06:24:36.693Z,54.62
2023-07-18T06:25:36.726Z,52.85
2023-07-18T06:26:36.675Z,55.11
2023-07-18T06:27:36.719Z,55.91
2023-07-18T06:28:36.674Z,55.91
2023-07-18T06:29:36.681Z,54.30
2023-07-18T06:30:36.728Z,54.46
2023-07-18T06:31:36.787Z,54.62
2023-07-18T06:32:36.642Z,54.30
2023-07-18T06:33:36.652Z,53.50
2023-07-18T06:34:36.658Z,54.46
2023-07-18T06:35:36.631Z,55.75
2023-07-18T06:36:36.663Z,55.11
2023-07-18T06:37:36.614Z,56.07
2023-07-18T06:38:36.603Z,52.85
2023-07-18T06:39:36.633Z,53.33
2023-07-18T06:40:36.619Z,53.50
2023-07-18T06:41:36.600Z,55.59
2023-07-18T06:42:36.561Z,52.85
2023-07-18T06:43:36.570Z,55.11
2023-07-18T06:44:36.556Z,53.82
2023-07-18T06:45:36.588Z,54.62
2023-07-18T06:46:36.560Z,55.75
2023-07-18T06:47:36.610Z,54.95
2023-07-18T06:48:36.519Z,55.27
2023-07-18T06:49:36.539Z,54.79
2023-07-18T06:50:36.611Z,55.75
2023-07-18T06:51:36.530Z,52.37
2023-07-18T06:52:37.112Z,52.69
2023-07-18T06:53:36.507Z,52.37
2023-07-18T06:54:36.482Z,54.30
2023-07-18T06:55:36.490Z,51.08
2023-07-18T06:56:36.498Z,52.21
2023-07-18T06:57:36.487Z,52.05
2023-07-18T06:58:36.461Z,53.33
2023-07-18T06:59:36.497Z,53.01
2023-07-18T07:00:36.467Z,53.33
2023-07-18T07:01:36.515Z,53.98
2023-07-18T07:02:36.463Z,53.82
2023-07-18T07:03:36.498Z,54.62
2023-07-18T07:04:36.418Z,54.14
2023-07-18T07:05:36.461Z,53.50
2023-07-18T07:06:36.407Z,52.53
2023-07-18T07:07:36.418Z,53.17
2023-07-18T07:08:36.385Z,55.11
2023-07-18T07:09:36.398Z,53.50
2023-07-18T07:10:36.381Z,51.40
2023-07-18T07:11:36.425Z,52.05
2023-07-18T07:12:37.456Z,53.17
2023-07-18T07:13:36.394Z,53.33
2023-07-18T07:14:36.349Z,53.50
2023-07-18T07:15:36.394Z,51.24
2023-07-18T07:16:36.454Z,51.72
2023-07-18T07:17:36.385Z,53.33
2023-07-18T07:18:36.342Z,52.69
2023-07-18T07:19:36.352Z,52.53
2023-07-18T07:20:36.326Z,53.50
2023-07-18T07:21:36.441Z,54.14
2023-07-18T07:22:36.403Z,52.21
2023-07-18T07:23:36.324Z,51.24
2023-07-18T07:24:36.280Z,52.85
2023-07-18T07:25:36.286Z,52.05
2023-07-18T07:26:36.295Z,51.56
2023-07-18T07:27:36.274Z,52.85
2023-07-18T07:28:36.269Z,52.37
2023-07-18T07:29:36.253Z,52.53
2023-07-18T07:30:36.258Z,52.53
2023-07-18T07:31:36.275Z,50.60
2023-07-18T07:32:36.395Z,50.43
2023-07-18T07:33:37.499Z,50.11
2023-07-18T07:34:37.705Z,49.95
2023-07-18T07:35:36.212Z,51.08
2023-07-18T07:36:36.247Z,50.60
2023-07-18T07:37:36.211Z,49.95
2023-07-18T07:38:36.183Z,49.47
2023-07-18T07:39:36.221Z,51.24
2023-07-18T07:40:36.182Z,49.63
2023-07-18T07:41:36.180Z,50.76
2023-07-18T07:42:36.232Z,51.40
2023-07-18T07:43:36.165Z,48.66
2023-07-18T07:44:36.134Z,51.40
2023-07-18T07:45:36.192Z,52.69
2023-07-18T07:46:36.151Z,51.24
2023-07-18T07:47:36.164Z,52.37
2023-07-18T07:48:36.119Z,53.82
2023-07-18T07:49:36.128Z,50.43
2023-07-18T07:50:36.134Z,52.85
2023-07-18T07:51:36.155Z,51.88
2023-07-18T07:52:36.098Z,49.63
2023-07-18T07:53:36.121Z,49.15
2023-07-18T07:54:36.103Z,53.82
2023-07-18T07:55:36.091Z,52.85
2023-07-18T07:56:36.066Z,51.24
2023-07-18T07:57:36.100Z,51.56
2023-07-18T07:58:36.057Z,52.37
2023-07-18T07:59:36.052Z,54.14
2023-07-18T08:00:36.053Z,52.53
2023-07-18T08:01:36.074Z,52.21
2023-07-18T08:02:36.082Z,50.11
2023-07-18T08:03:36.048Z,53.82
2023-07-18T08:04:36.043Z,53.17
2023-07-18T08:05:36.033Z,49.63
2023-07-18T08:06:36.027Z,52.53
2023-07-18T08:07:35.996Z,52.05
2023-07-18T08:08:35.994Z,50.27
2023-07-18T08:09:35.983Z,49.15
2023-07-18T08:10:35.963Z,50.76
2023-07-18T08:11:35.961Z,51.88
2023-07-18T08:12:35.987Z,53.17
2023-07-18T08:13:35.970Z,51.08
2023-07-18T08:14:36.162Z,53.01
2023-07-18T08:15:35.982Z,51.88
2023-07-18T08:16:35.965Z,51.72
2023-07-18T08:17:35.965Z,52.05
2023-07-18T08:18:35.934Z,51.40
2023-07-18T08:19:35.916Z,52.05
2023-07-18T08:20:35.874Z,52.05
2023-07-18T08:21:35.915Z,53.50
2023-07-18T08:22:35.893Z,52.85
2023-07-18T08:23:35.879Z,54.14
2023-07-18T08:24:35.884Z,52.53
2023-07-18T08:25:35.901Z,52.21
2023-07-18T08:26:35.860Z,52.21
2023-07-18T08:27:35.864Z,53.33
2023-07-18T08:28:35.836Z,53.17
2023-07-18T08:29:35.889Z,51.88
2023-07-18T08:30:35.849Z,50.60
2023-07-18T08:31:35.873Z,53.50
2023-07-18T08:32:35.863Z,51.72
2023-07-18T08:33:35.816Z,53.98
2023-07-18T08:34:35.803Z,53.98
2023-07-18T08:35:35.834Z,52.53
2023-07-18T08:36:35.781Z,54.95
2023-07-18T08:37:35.807Z,55.27
2023-07-18T08:38:35.793Z,52.37
2023-07-18T08:39:35.792Z,53.01
2023-07-18T08:40:35.808Z,53.82
2023-07-18T08:41:35.761Z,53.01
2023-07-18T08:42:35.746Z,55.91
2023-07-18T08:43:35.776Z,50.92
2023-07-18T08:44:35.745Z,50.27
2023-07-18T08:45:35.758Z,52.21
2023-07-18T08:46:35.796Z,54.46
2023-07-18T08:47:35.782Z,53.01
2023-07-18T08:48:35.726Z,51.88
2023-07-18T08:49:36.727Z,53.82
2023-07-18T08:50:35.709Z,51.24
2023-07-18T08:51:35.705Z,52.05
2023-07-18T08:52:35.726Z,52.69
2023-07-18T08:53:35.697Z,52.53
2023-07-18T08:54:35.898Z,53.01
2023-07-18T08:55:35.730Z,54.14
2023-07-18T08:56:35.659Z,53.33
2023-07-18T08:57:35.680Z,53.33
2023-07-18T08:58:35.665Z,53.01
2023-07-18T08:59:35.681Z,51.72
2023-07-18T09:00:35.634Z,52.21
2023-07-18T09:01:35.660Z,52.69
2023-07-18T09:02:35.712Z,50.27
2023-07-18T09:03:35.662Z,49.79
2023-07-18T09:04:35.608Z,52.53
2023-07-18T09:05:35.637Z,52.05
2023-07-18T09:06:35.583Z,52.37
2023-07-18T09:07:35.601Z,52.53
2023-07-18T09:08:35.568Z,52.69
2023-07-18T09:09:35.590Z,52.53
2023-07-18T09:10:35.570Z,52.85
2023-07-18T09:11:35.611Z,52.37
2023-07-18T09:12:35.548Z,54.62
2023-07-18T09:13:35.555Z,51.88
2023-07-18T09:14:35.578Z,52.21
2023-07-18T09:15:35.555Z,50.92
2023-07-18T09:16:35.521Z,51.56
2023-07-18T09:17:35.683Z,51.88
2023-07-18T09:18:35.529Z,48.66
2023-07-18T09:19:35.526Z,49.79
2023-07-18T09:20:35.520Z,53.33
2023-07-18T09:21:35.536Z,54.30
2023-07-18T09:22:35.535Z,52.37
2023-07-18T09:23:35.508Z,53.01
2023-07-18T09:24:35.476Z,50.43
2023-07-18T09:25:35.512Z,52.53
2023-07-18T09:26:35.457Z,55.11
2023-07-18T09:27:35.483Z,52.69
2023-07-18T09:28:35.446Z,52.37
2023-07-18T09:29:35.456Z,52.69
2023-07-18T09:30:35.422Z,52.05
2023-07-18T09:31:35.485Z,54.79
2023-07-18T09:32:35.470Z,49.79
2023-07-18T09:33:35.416Z,50.11
2023-07-18T09:34:35.414Z,49.79
2023-07-18T09:35:35.449Z,49.47
2023-07-18T09:36:36.979Z,48.18
2023-07-18T09:37:35.416Z,50.11
2023-07-18T09:38:35.384Z,51.24
2023-07-18T09:39:35.405Z,51.88
2023-07-18T09:40:35.399Z,54.14
2023-07-18T09:41:35.427Z,53.82
2023-07-18T09:42:35.374Z,52.85
2023-07-18T09:43:36.727Z,53.17
2023-07-18T09:44:37.301Z,53.82
2023-07-18T09:45:35.343Z,52.53
2023-07-18T09:46:35.446Z,53.82
2023-07-18T09:47:35.375Z,51.40
2023-07-18T09:48:44.595Z,53.50
2023-07-18T09:49:40.795Z,53.50
2023-07-18T09:50:35.298Z,53.66
2023-07-18T09:51:35.334Z,52.37
2023-07-18T09:52:35.295Z,53.98
2023-07-18T09:53:35.312Z,52.69
2023-07-18T09:54:35.348Z,53.01
2023-07-18T09:55:35.300Z,52.53
2023-07-18T09:56:35.245Z,52.05
2023-07-18T09:57:35.277Z,53.17
2023-07-18T09:58:35.237Z,54.46
2023-07-18T09:59:35.248Z,53.82
2023-07-18T10:00:35.228Z,54.95
2023-07-18T10:01:35.290Z,52.05
2023-07-18T10:02:35.354Z,52.85
2023-07-18T10:03:35.282Z,51.40
2023-07-18T10:04:35.224Z,51.72
2023-07-18T10:05:35.251Z,50.43
2023-07-18T10:06:35.193Z,53.01
2023-07-18T10:07:35.200Z,51.88
2023-07-18T10:08:35.193Z,53.01
2023-07-18T10:09:35.187Z,51.88
2023-07-18T10:10:35.199Z,51.24
2023-07-18T10:11:35.208Z,52.53
2023-07-18T10:12:35.178Z,52.05
2023-07-18T10:13:35.211Z,51.56
2023-07-18T10:14:35.132Z,53.82
2023-07-18T10:15:35.151Z,50.11
2023-07-18T10:16:35.142Z,50.92
2023-07-18T10:17:35.339Z,50.43
2023-07-18T10:18:35.153Z,52.37
2023-07-18T10:19:35.121Z,52.21
2023-07-18T10:20:37.868Z,53.33
2023-07-18T10:21:35.116Z,52.69
2023-07-18T10:22:35.142Z,52.69
2023-07-18T10:23:35.091Z,50.76
2023-07-18T10:24:35.086Z,48.98
2023-07-18T10:25:35.067Z,48.34
2023-07-18T10:26:35.059Z,47.86
2023-07-18T10:27:35.050Z,49.47
2023-07-18T10:28:35.036Z,49.79
2023-07-18T10:29:35.044Z,49.63
2023-07-18T10:30:35.058Z,46.57
2023-07-18T10:31:35.070Z,46.89
2023-07-18T10:32:35.058Z,46.73
2023-07-18T10:33:35.014Z,47.53
2023-07-18T10:34:34.999Z,49.79
2023-07-18T10:35:35.037Z,48.02
2023-07-18T10:36:34.976Z,47.21
2023-07-18T10:37:35.021Z,48.98
2023-07-18T10:38:35.015Z,49.79
2023-07-18T10:39:34.977Z,49.47
2023-07-18T10:40:34.949Z,49.63
2023-07-18T10:41:34.984Z,48.66
2023-07-18T10:42:34.944Z,51.24
2023-07-18T10:43:34.952Z,51.08
2023-07-18T10:44:34.930Z,47.86
2023-07-18T10:45:35.004Z,48.50
2023-07-18T10:46:34.979Z,49.47
2023-07-18T10:47:34.960Z,50.43
2023-07-18T10:48:34.890Z,50.11
2023-07-18T10:49:34.921Z,49.31
2023-07-18T10:50:34.893Z,48.50
2023-07-18T10:51:34.904Z,51.40
2023-07-18T10:52:34.901Z,48.50
2023-07-18T10:53:34.930Z,47.70
2023-07-18T10:54:34.849Z,49.63
2023-07-18T10:55:34.887Z,48.98
2023-07-18T10:56:34.869Z,49.63
2023-07-18T10:57:34.898Z,47.70
2023-07-18T10:58:34.854Z,50.27
2023-07-18T10:59:34.841Z,50.11
2023-07-18T11:00:34.827Z,51.88
2023-07-18T11:01:34.854Z,50.76
2023-07-18T11:02:34.844Z,52.05
2023-07-18T11:03:34.865Z,52.21
2023-07-18T11:04:34.860Z,51.40
2023-07-18T11:05:34.807Z,49.79
2023-07-18T11:06:34.786Z,49.47
2023-07-18T11:07:34.817Z,49.15
2023-07-18T11:08:34.772Z,50.76
2023-07-18T11:09:34.814Z,52.05
2023-07-18T11:10:34.861Z,48.82
2023-07-18T11:11:34.805Z,48.50
2023-07-18T11:12:34.748Z,48.98
2023-07-18T11:13:34.789Z,49.47
2023-07-18T11:14:34.737Z,51.40
2023-07-18T11:15:34.729Z,51.56
2023-07-18T11:16:34.799Z,53.33
2023-07-18T11:17:34.739Z,54.46
2023-07-18T11:18:34.787Z,49.95
2023-07-18T11:19:34.705Z,50.60
2023-07-18T11:20:34.688Z,47.53
2023-07-18T11:21:34.702Z,47.37
2023-07-18T11:22:34.756Z,49.47
2023-07-18T11:23:34.677Z,51.40
2023-07-18T11:24:34.677Z,48.34
2023-07-18T11:25:34.674Z,47.21
2023-07-18T11:26:34.650Z,48.34
2023-07-18T11:27:34.669Z,49.95
2023-07-18T11:28:34.619Z,48.18
2023-07-18T11:29:34.643Z,49.47
2023-07-18T11:30:34.633Z,52.05
2023-07-18T11:31:40.777Z,53.33
2023-07-18T11:32:35.671Z,50.27
2023-07-18T11:33:34.616Z,51.08
2023-07-18T11:34:34.598Z,53.01
2023-07-18T11:35:34.623Z,51.88
2023-07-18T11:36:34.605Z,51.40
2023-07-18T11:37:41.545Z,50.60
2023-07-18T11:38:35.541Z,48.98
2023-07-18T11:39:34.584Z,49.47
2023-07-18T11:40:34.555Z,49.47
2023-07-18T11:41:34.555Z,50.60
2023-07-18T11:42:34.533Z,50.92
2023-07-18T11:43:34.540Z,51.24
2023-07-18T11:44:34.542Z,50.11
2023-07-18T11:45:34.525Z,51.56
2023-07-18T11:46:34.509Z,52.53
2023-07-18T11:47:34.614Z,49.63
2023-07-18T11:48:34.593Z,47.70
2023-07-18T11:49:34.524Z,49.31
2023-07-18T11:50:34.493Z,52.05
2023-07-18T11:51:34.522Z,48.34
2023-07-18T11:52:34.454Z,50.11
2023-07-18T11:53:34.501Z,49.31
2023-07-18T11:54:34.492Z,50.27
2023-07-18T11:55:34.477Z,49.15
2023-07-18T11:56:34.418Z,48.50
2023-07-18T11:57:34.475Z,49.31
2023-07-18T11:58:34.459Z,50.92
2023-07-18T11:59:34.474Z,49.63
2023-07-18T12:00:34.392Z,50.27
2023-07-18T12:01:36.384Z,50.27
2023-07-18T12:02:34.484Z,51.88
2023-07-18T12:03:34.514Z,51.72
2023-07-18T12:04:34.409Z,53.17
2023-07-18T12:05:34.410Z,50.60
2023-07-18T12:06:34.379Z,49.79
2023-07-18T12:07:34.398Z,50.43
2023-07-18T12:08:34.376Z,49.63
2023-07-18T12:09:34.346Z,50.60
2023-07-18T12:10:34.369Z,51.72
2023-07-18T12:11:34.335Z,50.43
2023-07-18T12:12:34.333Z,48.98
2023-07-18T12:13:34.336Z,49.15
2023-07-18T12:14:34.351Z,48.82
2023-07-18T12:15:37.131Z,50.27
2023-07-18T12:16:34.352Z,51.08
2023-07-18T12:17:34.357Z,48.18
2023-07-18T12:18:34.272Z,51.40
2023-07-18T12:19:34.296Z,50.60
2023-07-18T12:20:34.291Z,48.50
2023-07-18T12:21:34.315Z,49.31
2023-07-18T12:22:34.357Z,48.18
2023-07-18T12:23:34.253Z,47.21
2023-07-18T12:24:34.259Z,49.95
2023-07-18T12:25:34.264Z,50.60
2023-07-18T12:26:34.235Z,48.66
2023-07-18T12:27:34.259Z,48.82
2023-07-18T12:28:34.197Z,48.98
2023-07-18T12:29:34.237Z,50.27
2023-07-18T12:30:34.208Z,50.11
2023-07-18T12:31:34.295Z,47.53
2023-07-18T12:32:34.280Z,50.11
2023-07-18T12:33:34.277Z,50.76
2023-07-18T12:34:34.162Z,51.40
2023-07-18T12:35:34.180Z,53.33
2023-07-18T12:36:34.154Z,51.08
2023-07-18T12:37:34.159Z,51.24
2023-07-18T12:38:34.147Z,52.21
2023-07-18T12:39:34.148Z,51.88
2023-07-18T12:40:34.199Z,51.40
2023-07-18T12:41:34.166Z,49.79
2023-07-18T12:42:34.102Z,51.40
2023-07-18T12:43:34.144Z,53.17
2023-07-18T12:44:34.132Z,52.21
2023-07-18T12:45:34.119Z,51.72
2023-07-18T12:46:34.118Z,51.08
2023-07-18T12:47:34.172Z,51.56
2023-07-18T12:48:34.089Z,50.76
2023-07-18T12:50:34.106Z,50.43
2023-07-18T12:51:34.114Z,48.50
2023-07-18T12:52:34.065Z,50.11
2023-07-18T12:53:34.072Z,52.69